createdAt,value
2022-08-25T00:01:23.509Z,18.66
2022-08-25T00:04:04.058Z,18.62
2022-08-25T00:06:33.064Z,18.62
2022-08-25T00:09:06.646Z,18.59
2022-08-25T00:11:37.413Z,18.58
2022-08-25T00:14:14.003Z,18.58
2022-08-25T00:16:49.355Z,18.64
2022-08-25T00:19:23.513Z,18.60
2022-08-25T00:21:50.748Z,18.57
2022-08-25T00:24:23.069Z,18.57
2022-08-25T00:26:54.962Z,18.51
2022-08-25T00:29:29.935Z,18.44
2022-08-25T00:32:05.829Z,18.36
2022-08-25T00:34:38.359Z,18.32
2022-08-25T00:37:09.172Z,18.32
2022-08-25T00:39:41.293Z,18.23
2022-08-25T00:42:11.907Z,18.17
2022-08-25T00:44:43.846Z,18.08
2022-08-25T00:47:13.304Z,18.07
2022-08-25T00:49:43.960Z,18.09
2022-08-25T00:52:13.967Z,18.06
2022-08-25T00:55:07.729Z,18.01
2022-08-25T00:57:51.643Z,17.99
2022-08-25T01:00:49.631Z,18.04
2022-08-25T01:03:19.515Z,17.98
2022-08-25T01:05:49.512Z,17.99
2022-08-25T01:08:18.416Z,17.99
2022-08-25T01:10:46.266Z,17.98
2022-08-25T01:13:22.136Z,18.08
2022-08-25T01:15:50.385Z,18.10
2022-08-25T01:18:17.052Z,18.12
2022-08-25T01:20:49.288Z,18.10
2022-08-25T01:23:19.610Z,18.10
2022-08-25T01:26:11.816Z,18.11
2022-08-25T01:28:38.815Z,18.04
2022-08-25T01:31:05.492Z,18.00
2022-08-25T01:33:51.130Z,17.89
2022-08-25T01:36:20.032Z,17.84
2022-08-25T01:38:46.587Z,17.77
2022-08-25T01:41:17.543Z,17.69
2022-08-25T01:43:44.291Z,17.58
2022-08-25T01:46:11.190Z,17.52
2022-08-25T01:48:38.040Z,17.42
2022-08-25T01:51:04.698Z,17.34
2022-08-25T01:53:33.545Z,17.30
2022-08-25T01:56:09.769Z,17.35
2022-08-25T01:58:39.081Z,17.36
2022-08-25T02:01:09.235Z,17.41
2022-08-25T02:03:42.033Z,17.32
2022-08-25T02:06:12.240Z,17.29
2022-08-25T02:08:40.300Z,17.29
2022-08-25T02:11:11.975Z,17.26
2022-08-25T02:13:40.439Z,17.22
2022-08-25T02:16:08.891Z,17.22
2022-08-25T02:18:35.639Z,17.16
2022-08-25T02:21:02.549Z,17.14
2022-08-25T02:23:30.182Z,17.13
2022-08-25T02:25:57.298Z,17.07
2022-08-25T02:28:24.931Z,17.05
2022-08-25T02:30:53.178Z,17.05
2022-08-25T02:33:25.640Z,17.04
2022-08-25T02:35:52.240Z,17.03
2022-08-25T02:38:18.952Z,16.95
2022-08-25T02:40:45.476Z,16.94
2022-08-25T02:43:12.175Z,16.95
2022-08-25T02:45:39.066Z,16.94
2022-08-25T02:48:05.803Z,16.85
2022-08-25T02:50:33.288Z,16.85
2022-08-25T02:52:59.962Z,16.91
2022-08-25T02:55:26.641Z,16.89
2022-08-25T02:57:53.247Z,16.96
2022-08-25T03:00:20.184Z,17.03
2022-08-25T03:02:47.381Z,17.05
2022-08-25T03:05:15.690Z,17.00
2022-08-25T03:07:42.617Z,16.98
2022-08-25T03:10:13.417Z,17.01
2022-08-25T03:12:41.615Z,16.95
2022-08-25T03:15:16.414Z,16.94
2022-08-25T03:17:47.507Z,16.95
2022-08-25T03:20:14.165Z,16.98
2022-08-25T03:22:41.184Z,16.98
2022-08-25T03:25:27.138Z,16.96
2022-08-25T03:27:53.950Z,16.97
2022-08-25T03:30:20.649Z,16.94
2022-08-25T03:32:47.370Z,16.88
2022-08-25T03:35:13.972Z,16.80
2022-08-25T03:37:40.936Z,16.76
2022-08-25T03:40:13.989Z,16.72
2022-08-25T03:42:46.662Z,16.72
2022-08-25T03:45:16.420Z,16.62
2022-08-25T03:47:47.443Z,16.44
2022-08-25T03:50:14.764Z,16.38
2022-08-25T03:52:42.710Z,16.32
2022-08-25T03:55:12.017Z,16.24
2022-08-25T03:57:38.848Z,16.27
2022-08-25T04:00:10.307Z,16.23
2022-08-25T04:02:40.624Z,16.21
2022-08-25T04:05:08.226Z,16.18
2022-08-25T04:07:35.540Z,16.21
2022-08-25T04:10:02.622Z,16.23
2022-08-25T04:12:29.123Z,16.25
2022-08-25T04:14:55.920Z,16.27
2022-08-25T04:17:22.908Z,16.36
2022-08-25T04:19:51.093Z,16.45
2022-08-25T04:22:17.900Z,16.49
2022-08-25T04:24:44.439Z,16.50
2022-08-25T04:27:11.262Z,16.53
2022-08-25T04:29:38.444Z,16.57
2022-08-25T04:32:05.193Z,16.59
2022-08-25T04:34:31.860Z,16.58
2022-08-25T04:37:02.899Z,16.60
2022-08-25T04:39:30.554Z,16.55
2022-08-25T04:41:57.706Z,16.51
2022-08-25T04:44:24.322Z,16.51
2022-08-25T04:46:50.965Z,16.51
2022-08-25T04:49:17.772Z,16.57
2022-08-25T04:51:44.506Z,16.57
2022-08-25T04:54:14.064Z,16.58
2022-08-25T04:56:41.289Z,16.62
2022-08-25T04:59:11.600Z,16.55
2022-08-25T05:01:39.251Z,16.60
2022-08-25T05:04:07.949Z,16.54
2022-08-25T05:06:35.382Z,16.59
2022-08-25T05:09:03.091Z,16.61
2022-08-25T05:11:32.155Z,16.63
2022-08-25T05:14:01.422Z,16.69
2022-08-25T05:16:28.478Z,16.70
2022-08-25T05:18:55.614Z,16.73
2022-08-25T05:21:25.047Z,16.76
2022-08-25T05:23:56.746Z,16.82
2022-08-25T05:26:25.469Z,16.90
2022-08-25T05:28:54.096Z,16.96
2022-08-25T05:31:23.329Z,16.98
2022-08-25T05:33:50.751Z,17.05
2022-08-25T05:36:18.246Z,17.17
2022-08-25T05:38:44.915Z,17.21
2022-08-25T05:41:16.175Z,17.25
2022-08-25T05:43:44.203Z,17.29
2022-08-25T05:46:11.984Z,17.32
2022-08-25T05:48:38.746Z,17.45
2022-08-25T05:51:10.371Z,17.46
2022-08-25T05:53:39.721Z,17.40
2022-08-25T05:56:06.489Z,17.42
2022-08-25T05:58:33.585Z,17.50
2022-08-25T06:01:19.846Z,17.64
2022-08-25T06:03:47.646Z,17.81
2022-08-25T06:06:15.995Z,17.94
2022-08-25T06:08:44.334Z,18.05
2022-08-25T06:11:12.668Z,18.22
2022-08-25T06:13:39.898Z,18.21
2022-08-25T06:16:07.121Z,18.30
2022-08-25T06:18:33.730Z,18.33
2022-08-25T06:21:08.362Z,18.39
2022-08-25T06:23:34.988Z,18.46
2022-08-25T06:26:01.938Z,18.50
2022-08-25T06:28:28.611Z,18.61
2022-08-25T06:31:00.295Z,18.64
2022-08-25T06:33:26.995Z,18.70
2022-08-25T06:35:56.017Z,18.81
2022-08-25T06:38:23.094Z,18.91
2022-08-25T06:40:52.088Z,18.98
2022-08-25T06:43:21.953Z,19.04
2022-08-25T06:45:48.662Z,19.09
2022-08-25T06:48:15.845Z,19.21
2022-08-25T06:50:43.331Z,19.30
2022-08-25T06:53:10.121Z,19.36
2022-08-25T06:55:36.868Z,19.45
2022-08-25T06:58:04.961Z,19.55
2022-08-25T07:00:32.885Z,19.60
2022-08-25T07:03:01.140Z,19.69
2022-08-25T07:05:40.879Z,19.69
2022-08-25T07:08:11.791Z,19.68
2022-08-25T07:10:38.865Z,19.69
2022-08-25T07:13:05.441Z,19.69
2022-08-25T07:15:32.018Z,19.81
2022-08-25T07:17:58.729Z,19.99
2022-08-25T07:22:57.827Z,20.24
2022-08-25T07:25:24.537Z,20.48
2022-08-25T07:27:52.365Z,20.69
2022-08-25T07:30:20.876Z,20.79
2022-08-25T07:32:47.476Z,20.94
2022-08-25T07:35:24.591Z,21.08
2022-08-25T07:37:56.763Z,21.19
2022-08-25T07:40:27.242Z,21.26
2022-08-25T07:42:56.831Z,21.39
2022-08-25T07:45:30.473Z,21.49
2022-08-25T07:48:03.209Z,21.72
2022-08-25T07:50:31.255Z,21.84
2022-08-25T07:52:58.765Z,22.11
2022-08-25T07:55:27.229Z,22.28
2022-08-25T07:57:57.168Z,22.47
2022-08-25T08:00:27.725Z,22.65
2022-08-25T08:02:55.134Z,22.73
2022-08-25T08:05:23.969Z,22.89
2022-08-25T08:07:51.955Z,22.97
2022-08-25T08:13:07.535Z,23.36
2022-08-25T08:15:35.459Z,23.57
2022-08-25T08:18:03.226Z,23.70
2022-08-25T08:20:42.611Z,23.87
2022-08-25T08:23:09.568Z,23.93
2022-08-25T08:25:36.155Z,23.84
2022-08-25T08:28:03.048Z,24.06
2022-08-25T08:30:30.229Z,24.35
2022-08-25T08:33:12.825Z,24.61
2022-08-25T08:35:43.046Z,24.62
2022-08-25T08:38:14.902Z,24.55
2022-08-25T08:41:29.741Z,24.65
2022-08-25T08:44:16.502Z,24.94
2022-08-25T08:47:03.561Z,25.08
2022-08-25T08:49:48.461Z,25.29
2022-08-25T08:52:16.689Z,25.31
2022-08-25T08:54:44.705Z,25.37
2022-08-25T08:57:16.473Z,25.36
2022-08-25T08:59:48.928Z,25.47
2022-08-25T09:02:39.127Z,25.12
2022-08-25T09:05:19.809Z,25.19
2022-08-25T09:08:07.194Z,25.30
2022-08-25T09:10:47.932Z,25.17
2022-08-25T09:13:42.696Z,25.42
2022-08-25T09:16:39.266Z,25.45
2022-08-25T09:19:23.378Z,25.71
2022-08-25T09:22:33.290Z,25.71
2022-08-25T09:25:16.332Z,25.81
2022-08-25T09:28:00.799Z,26.00
2022-08-25T09:30:28.663Z,25.91
2022-08-25T09:33:03.600Z,25.76
2022-08-25T09:35:34.274Z,26.08
2022-08-25T09:38:03.651Z,25.81
2022-08-25T09:40:32.969Z,25.59
2022-08-25T09:43:01.672Z,25.63
2022-08-25T09:45:46.311Z,25.74
2022-08-25T09:48:42.932Z,26.00
2022-08-25T09:51:37.898Z,26.18
2022-08-25T09:54:18.108Z,26.26
2022-08-25T09:57:01.188Z,26.12
2022-08-25T09:59:37.462Z,26.16
2022-08-25T10:02:25.782Z,26.34
2022-08-25T10:04:52.979Z,26.26
2022-08-25T10:07:32.425Z,26.34
2022-08-25T10:10:01.710Z,26.56
2022-08-25T10:12:42.622Z,26.86
2022-08-25T10:15:29.749Z,26.66
2022-08-25T10:18:19.481Z,26.85
2022-08-25T10:21:04.144Z,27.07
2022-08-25T10:23:41.118Z,27.35
2022-08-25T10:26:13.782Z,27.14
2022-08-25T10:29:16.544Z,26.99
2022-08-25T10:31:52.313Z,26.83
2022-08-25T10:34:47.000Z,26.73
2022-08-25T10:37:32.630Z,26.81
2022-08-25T10:40:05.818Z,27.15
2022-08-25T10:43:08.578Z,27.07
2022-08-25T10:45:51.017Z,27.22
2022-08-25T10:48:37.946Z,27.61
2022-08-25T10:51:25.865Z,27.66
2022-08-25T10:54:23.181Z,27.78
2022-08-25T10:57:28.804Z,28.01
2022-08-25T11:00:12.453Z,27.89
2022-08-25T11:03:00.373Z,28.14
2022-08-25T11:05:33.337Z,27.96
2022-08-25T11:08:12.607Z,28.06
2022-08-25T11:10:47.887Z,28.21
2022-08-25T11:13:24.365Z,28.09
2022-08-25T11:16:16.127Z,27.76
2022-08-25T11:18:47.930Z,27.67
2022-08-25T11:21:32.662Z,27.73
2022-08-25T11:24:26.515Z,27.96
2022-08-25T11:26:56.625Z,27.79
2022-08-25T11:29:27.025Z,27.89
2022-08-25T11:31:54.141Z,27.71
2022-08-25T11:34:21.701Z,27.52
2022-08-25T11:36:55.452Z,27.83
2022-08-25T11:39:39.129Z,27.85
2022-08-25T11:42:58.396Z,27.61
2022-08-25T11:45:42.567Z,27.32
2022-08-25T11:48:22.149Z,27.41
2022-08-25T11:51:04.868Z,27.61
2022-08-25T11:53:37.848Z,27.82
2022-08-25T11:56:08.903Z,27.83
2022-08-25T11:58:51.715Z,27.99
2022-08-25T12:01:40.354Z,27.81
2022-08-25T12:04:44.689Z,28.22
2022-08-25T12:07:14.921Z,28.17
2022-08-25T12:09:50.944Z,28.24
2022-08-25T12:12:37.297Z,28.23
2022-08-25T12:15:24.279Z,28.31
2022-08-25T12:18:11.393Z,28.30
2022-08-25T12:20:53.413Z,28.35
2022-08-25T12:23:29.464Z,28.30
2022-08-25T12:26:01.779Z,28.67
2022-08-25T12:28:57.092Z,28.44
2022-08-25T12:31:51.067Z,28.43
2022-08-25T12:34:36.987Z,28.43
2022-08-25T12:37:22.272Z,28.42
2022-08-25T12:39:48.845Z,28.47
2022-08-25T12:42:31.871Z,28.30
2022-08-25T12:45:20.584Z,27.94
2022-08-25T12:47:49.095Z,27.88
2022-08-25T12:50:29.500Z,27.65
2022-08-25T12:53:11.241Z,27.56
2022-08-25T12:55:40.491Z,27.32
2022-08-25T12:58:07.114Z,27.28
2022-08-25T13:00:52.856Z,27.22
2022-08-25T13:06:38.413Z,26.75
2022-08-25T13:09:42.258Z,26.63
2022-08-25T13:12:24.008Z,26.95
2022-08-25T13:14:56.396Z,27.30
2022-08-25T13:17:33.812Z,27.71
2022-08-25T13:20:23.332Z,28.22
2022-08-25T13:23:00.158Z,28.37
2022-08-25T13:25:31.982Z,28.49
2022-08-25T13:28:01.898Z,28.64
2022-08-25T13:30:30.983Z,28.63
2022-08-25T13:32:58.961Z,28.58
2022-08-25T13:35:32.865Z,28.40
2022-08-25T13:38:16.592Z,28.61
2022-08-25T13:40:44.296Z,28.86
2022-08-25T13:43:13.129Z,28.80
2022-08-25T13:45:42.766Z,28.86
2022-08-25T13:48:20.864Z,28.89
2022-08-25T13:50:52.058Z,29.12
2022-08-25T13:53:25.541Z,28.95
2022-08-25T13:55:58.227Z,29.19
2022-08-25T13:58:39.402Z,29.09
2022-08-25T14:01:23.055Z,28.91
2022-08-25T14:04:32.069Z,29.04
2022-08-25T14:07:26.195Z,29.19
2022-08-25T14:10:00.209Z,29.35
2022-08-25T14:12:46.163Z,29.16
2022-08-25T14:15:20.188Z,29.01
2022-08-25T14:17:59.097Z,29.15
2022-08-25T14:20:29.118Z,29.38
2022-08-25T14:22:58.844Z,29.35
2022-08-25T14:25:27.753Z,29.32
2022-08-25T14:28:06.753Z,29.39
2022-08-25T14:30:36.058Z,29.36
2022-08-25T14:33:03.981Z,29.31
2022-08-25T14:35:31.419Z,29.11
2022-08-25T14:37:58.215Z,28.96
2022-08-25T14:40:25.261Z,28.90
2022-08-25T14:42:51.901Z,28.80
2022-08-25T14:45:18.991Z,28.66
2022-08-25T14:47:49.780Z,28.63
2022-08-25T14:50:20.821Z,28.53
2022-08-25T14:52:48.271Z,28.60
2022-08-25T14:55:31.126Z,28.44
2022-08-25T14:57:58.465Z,28.31
2022-08-25T15:00:25.852Z,28.11
2022-08-25T15:02:53.042Z,28.10
2022-08-25T15:05:27.015Z,28.20
2022-08-25T15:08:14.945Z,28.14
2022-08-25T15:10:41.808Z,28.01
2022-08-25T15:13:10.591Z,28.13
2022-08-25T15:15:39.609Z,28.02
2022-08-25T15:18:20.342Z,27.97
2022-08-25T15:20:47.124Z,27.94
2022-08-25T15:23:18.477Z,28.17
2022-08-25T15:25:46.475Z,28.40
2022-08-25T15:28:13.642Z,28.29
2022-08-25T15:30:45.617Z,28.35
2022-08-25T15:33:13.754Z,28.26
2022-08-25T15:35:41.103Z,28.58
2022-08-25T15:38:08.213Z,28.36
2022-08-25T15:40:37.523Z,28.57
2022-08-25T15:43:05.214Z,28.60
2022-08-25T15:45:32.155Z,28.67
2022-08-25T15:47:59.524Z,28.68
2022-08-25T15:50:26.873Z,28.66
2022-08-25T15:52:53.743Z,28.73
2022-08-25T15:55:20.953Z,28.64
2022-08-25T15:57:49.717Z,28.54
2022-08-25T16:00:18.026Z,28.18
2022-08-25T16:02:45.508Z,28.32
2022-08-25T16:05:13.697Z,28.36
2022-08-25T16:07:43.103Z,28.49
2022-08-25T16:10:12.559Z,28.48
2022-08-25T16:12:40.033Z,28.41
2022-08-25T16:15:10.125Z,28.33
2022-08-25T16:17:40.564Z,28.17
2022-08-25T16:20:13.751Z,27.84
2022-08-25T16:22:41.355Z,27.60
2022-08-25T16:25:08.375Z,27.57
2022-08-25T16:27:38.550Z,28.34
2022-08-25T16:30:07.761Z,29.36
2022-08-25T16:32:34.766Z,30.12
2022-08-25T16:35:05.741Z,30.92
2022-08-25T16:37:37.734Z,30.36
2022-08-25T16:40:05.185Z,29.49
2022-08-25T16:42:31.866Z,28.64
2022-08-25T16:44:59.890Z,27.85
2022-08-25T16:47:26.957Z,27.35
2022-08-25T16:49:53.766Z,27.20
2022-08-25T16:52:39.148Z,27.04
2022-08-25T16:55:14.335Z,26.97
2022-08-25T16:57:54.274Z,26.80
2022-08-25T17:00:24.806Z,26.67
2022-08-25T17:02:56.174Z,26.55
2022-08-25T17:05:22.847Z,26.41
2022-08-25T17:08:09.422Z,26.30
2022-08-25T17:10:39.454Z,26.12
2022-08-25T17:13:06.547Z,26.04
2022-08-25T17:15:33.429Z,25.95
2022-08-25T17:18:00.013Z,25.83
2022-08-25T17:20:27.872Z,25.78
2022-08-25T17:22:54.693Z,25.71
2022-08-25T17:25:21.588Z,25.66
2022-08-25T17:27:48.202Z,25.50
2022-08-25T17:30:15.372Z,25.40
2022-08-25T17:32:43.471Z,25.20
2022-08-25T17:35:12.288Z,25.06
2022-08-25T17:37:41.547Z,24.93
2022-08-25T17:40:09.584Z,24.81
2022-08-25T17:42:37.840Z,24.74
2022-08-25T17:45:05.664Z,24.69
2022-08-25T17:47:32.317Z,24.59
2022-08-25T17:49:59.836Z,24.49
2022-08-25T17:52:27.244Z,24.41
2022-08-25T17:54:53.842Z,24.35
2022-08-25T17:57:20.883Z,24.25
2022-08-25T17:59:47.961Z,24.17
2022-08-25T18:02:14.612Z,24.09
2022-08-25T18:04:41.894Z,24.01
2022-08-25T18:07:08.477Z,23.96
2022-08-25T18:09:35.135Z,23.88
2022-08-25T18:12:01.766Z,23.82
2022-08-25T18:14:30.049Z,23.73
2022-08-25T18:16:57.075Z,23.65
2022-08-25T18:19:24.150Z,23.55
2022-08-25T18:21:52.546Z,23.44
2022-08-25T18:24:19.400Z,23.34
2022-08-25T18:26:46.731Z,23.24
2022-08-25T18:29:13.471Z,23.15
2022-08-25T18:31:41.658Z,23.09
2022-08-25T18:34:11.144Z,22.96
2022-08-25T18:36:38.890Z,22.89
2022-08-25T18:39:24.916Z,22.78
2022-08-25T18:41:51.712Z,22.73
2022-08-25T18:44:18.456Z,22.71
2022-08-25T18:46:46.004Z,22.57
2022-08-25T18:49:15.594Z,22.56
2022-08-25T18:51:44.791Z,22.48
2022-08-25T18:54:22.419Z,22.39
2022-08-25T18:56:52.911Z,22.37
2022-08-25T18:59:19.928Z,22.33
2022-08-25T19:01:50.402Z,22.30
2022-08-25T19:04:17.102Z,22.27
2022-08-25T19:06:44.031Z,22.35
2022-08-25T19:09:11.375Z,22.43
2022-08-25T19:11:38.170Z,22.40
2022-08-25T19:14:11.955Z,22.32
2022-08-25T19:16:42.469Z,22.23
2022-08-25T19:19:13.064Z,22.16
2022-08-25T19:21:41.116Z,22.10
2022-08-25T19:24:09.742Z,22.00
2022-08-25T19:26:36.985Z,21.92
2022-08-25T19:29:08.924Z,21.87
2022-08-25T19:31:36.197Z,21.80
2022-08-25T19:34:04.002Z,21.78
2022-08-25T19:36:30.974Z,21.76
2022-08-25T19:39:00.171Z,21.70
2022-08-25T19:41:30.638Z,21.67
2022-08-25T19:43:58.238Z,21.58
2022-08-25T19:46:35.322Z,21.54
2022-08-25T19:49:14.736Z,21.48
2022-08-25T19:51:44.716Z,21.46
2022-08-25T19:54:13.600Z,21.46
2022-08-25T19:56:53.627Z,21.47
2022-08-25T19:59:34.267Z,21.45
2022-08-25T20:02:12.426Z,21.42
2022-08-25T20:04:49.452Z,21.41
2022-08-25T20:07:22.763Z,21.40
2022-08-25T20:09:51.601Z,21.40
2022-08-25T20:12:20.099Z,21.38
2022-08-25T20:14:47.946Z,21.37
2022-08-25T20:17:23.772Z,21.39
2022-08-25T20:19:54.502Z,21.40
2022-08-25T20:22:26.299Z,21.44
2022-08-25T20:24:58.629Z,21.45
2022-08-25T20:27:33.858Z,21.41
2022-08-25T20:30:02.638Z,21.38
2022-08-25T20:32:31.550Z,21.34
2022-08-25T20:34:58.241Z,21.29
2022-08-25T20:37:25.699Z,21.27
2022-08-25T20:39:53.093Z,21.25
2022-08-25T20:42:20.531Z,21.25
2022-08-25T20:44:47.188Z,21.22
2022-08-25T20:47:14.980Z,21.20
2022-08-25T20:49:44.530Z,21.19
2022-08-25T20:52:12.018Z,21.15
2022-08-25T20:54:40.311Z,21.19
2022-08-25T20:57:07.944Z,21.12
2022-08-25T20:59:34.994Z,21.11
2022-08-25T21:02:02.170Z,21.05
2022-08-25T21:04:29.882Z,21.08
2022-08-25T21:06:57.535Z,21.07
2022-08-25T21:09:26.511Z,21.04
2022-08-25T21:11:54.871Z,21.01
2022-08-25T21:14:22.485Z,20.98
2022-08-25T21:16:50.607Z,20.98
2022-08-25T21:19:26.312Z,20.92
2022-08-25T21:21:54.310Z,20.86
2022-08-25T21:24:26.282Z,20.80
2022-08-25T21:26:55.925Z,20.77
2022-08-25T21:29:25.310Z,20.73
2022-08-25T21:31:52.905Z,20.70
2022-08-25T21:34:21.200Z,20.73
2022-08-25T21:36:49.077Z,20.71
2022-08-25T21:39:15.889Z,20.80
2022-08-25T21:41:45.153Z,20.88
2022-08-25T21:44:13.189Z,20.86
2022-08-25T21:46:41.047Z,20.67
2022-08-25T21:49:07.925Z,20.56
2022-08-25T21:51:41.064Z,20.39
2022-08-25T21:54:11.101Z,20.31
2022-08-25T21:56:42.268Z,20.19
2022-08-25T21:59:15.353Z,20.08
2022-08-25T22:01:43.223Z,20.02
2022-08-25T22:04:11.269Z,19.94
2022-08-25T22:06:38.257Z,19.89
2022-08-25T22:09:06.861Z,19.83
2022-08-25T22:11:35.980Z,19.77
2022-08-25T22:14:03.275Z,19.67
2022-08-25T22:16:31.948Z,19.58
2022-08-25T22:18:59.485Z,19.50
2022-08-25T22:21:27.939Z,19.45
2022-08-25T22:23:58.247Z,19.47
2022-08-25T22:26:27.776Z,19.44
2022-08-25T22:28:55.900Z,19.43
2022-08-25T22:31:23.451Z,19.44
2022-08-25T22:33:51.295Z,19.43
2022-08-25T22:36:26.170Z,19.41
2022-08-25T22:38:53.250Z,19.41
2022-08-25T22:41:21.361Z,19.43
2022-08-25T22:43:49.805Z,19.42
2022-08-25T22:46:18.715Z,19.46
2022-08-25T22:48:46.159Z,19.49
2022-08-25T22:51:15.314Z,19.51
2022-08-25T22:53:43.812Z,19.49
2022-08-25T22:56:12.010Z,19.44
2022-08-25T22:58:39.261Z,19.40
2022-08-25T23:01:16.385Z,19.38
2022-08-25T23:03:44.670Z,19.41
2022-08-25T23:06:24.470Z,19.34
2022-08-25T23:08:53.513Z,19.27
2022-08-25T23:11:21.481Z,19.22
2022-08-25T23:13:48.170Z,19.16
2022-08-25T23:16:15.619Z,19.16
2022-08-25T23:18:43.910Z,19.05
2022-08-25T23:21:29.783Z,19.00
2022-08-25T23:24:01.996Z,19.00
2022-08-25T23:26:29.383Z,18.98
2022-08-25T23:28:55.991Z,18.95
2022-08-25T23:31:22.650Z,18.98
2022-08-25T23:33:50.849Z,18.96
2022-08-25T23:36:20.651Z,18.94
2022-08-25T23:38:51.534Z,18.91
2022-08-25T23:41:21.709Z,18.93
2022-08-25T23:43:49.799Z,18.98
2022-08-25T23:46:20.361Z,19.02
2022-08-25T23:48:47.234Z,19.01
2022-08-25T23:51:25.128Z,19.03
2022-08-25T23:53:51.920Z,19.05
2022-08-25T23:56:18.523Z,19.05
2022-08-25T23:58:46.051Z,19.00
